Teruhou Maru No.22 — JD3202 — position and weather

sailwx.info

Track history (hours):
 
Tides and Currents Weather Stations Pressure Air Temp Water Temp Dewpoint Dewpoint Depression Visibility Wind Speed Wind Dir Waves Ship Positions

Teruhou Maru No.22

Last reported at 2014-Aug-29 01:29 UTC. Time now 2014-Sep-01 11:38 UTC.
Position N 34°57' E 139°24'.

Length 76 m; draft 4 m.

Type: Cargo ship. MMSI: 431002552.

Date/timePositionNaut miles runAvg speedWind from/ knotsBaromVisibWave heightAir tempDewpointWater temp
2014-Aug-29 01:29N 34°57' E 139°24'1011.2
2014-Aug-29 00:33N 35°03' E 139°34'1211.6
2014-Aug-28 23:33N 35°10' E 139°45'1211.9
2014-Aug-28 22:33N 35°22' E 139°42'7 7.5
2014-Aug-28 21:33N 35°21' E 139°51'0 0.0
2014-Aug-28 19:32N 35°21' E 139°51'0 0.1
2014-Aug-28 18:32N 35°21' E 139°51'0 0.2
2014-Aug-28 17:06N 35°21' E 139°51'0 0.2
2014-Aug-28 16:15N 35°21' E 139°51'0 0.1
2014-Aug-28 15:28N 35°21' E 139°51'0 0.1
2014-Aug-28 14:24N 35°21' E 139°51'0 0.0
2014-Aug-28 13:33N 35°21' E 139°51'0 0.0
2014-Aug-28 12:33N 35°21' E 139°51'0 0.1
2014-Aug-28 11:30N 35°21' E 139°51'0 0.1
2014-Aug-28 10:33N 35°21' E 139°51'0 0.1
2014-Aug-28 09:29N 35°21' E 139°51'0 0.1
2014-Aug-28 08:31N 35°21' E 139°51'0 0.1
2014-Aug-28 07:22N 35°21' E 139°51'0 0.1
2014-Aug-28 06:17N 35°21' E 139°51'0 0.1
2014-Aug-28 05:24N 35°21' E 139°51'0 0.1
2014-Aug-28 04:33N 35°21' E 139°51'1 1.4
2014-Aug-28 03:33N 35°22' E 139°50'0 0.0
2014-Aug-28 02:33N 35°22' E 139°50'0 0.0
2014-Aug-28 01:33N 35°22' E 139°50'0 0.0
2014-Aug-28 00:33N 35°22' E 139°50'0 0.0
2014-Aug-27 23:33N 35°22' E 139°50'0 0.0
2014-Aug-27 22:33N 35°22' E 139°50'0 0.0
2014-Aug-27 21:33N 35°22' E 139°50'0 0.0
2014-Aug-27 20:33N 35°22' E 139°50'0 0.0
2014-Aug-27 19:33N 35°22' E 139°50'0 0.0
2014-Aug-27 18:33N 35°22' E 139°50'0 0.0
2014-Aug-27 17:33N 35°22' E 139°50'0 0.0
2014-Aug-27 16:33N 35°22' E 139°50'0 0.0
2014-Aug-27 15:33N 35°22' E 139°50'0 0.0
2014-Aug-27 14:34N 35°22' E 139°50'0 0.0
2014-Aug-27 13:33N 35°22' E 139°50'0 0.0
2014-Aug-27 12:33N 35°22' E 139°50'0 0.0
2014-Aug-27 11:33N 35°22' E 139°50'0 0.0
2014-Aug-27 10:33N 35°22' E 139°50'0 0.0
2014-Aug-27 09:33N 35°22' E 139°50'0 0.0
2014-Aug-27 08:33N 35°22' E 139°50'0 0.0
2014-Aug-27 07:32N 35°22' E 139°50'0 0.0
2014-Aug-27 06:33N 35°22' E 139°50'3 2.9
2014-Aug-27 05:33N 35°25' E 139°49'1312.5
2014-Aug-27 04:33N 35°37' E 139°49'1 0.8
2014-Aug-27 03:33N 35°38' E 139°48'0 0.1
2014-Aug-27 02:33N 35°38' E 139°48'0 0.0
2014-Aug-27 01:33N 35°38' E 139°48'0 0.0
2014-Aug-27 00:33N 35°38' E 139°48'0 0.0
2014-Aug-26 23:31N 35°38' E 139°48'0 0.0
2014-Aug-26 22:33N 35°38' E 139°48'0 0.1
2014-Aug-26 21:33N 35°38' E 139°48'0 0.0
2014-Aug-26 20:33N 35°38' E 139°48'0 0.0
2014-Aug-26 19:33N 35°38' E 139°48'0 0.0
2014-Aug-26 18:33N 35°38' E 139°48'0 0.0
2014-Aug-26 17:33N 35°38' E 139°48'0 0.1
2014-Aug-26 16:33N 35°38' E 139°48'0 0.1
2014-Aug-26 15:33N 35°38' E 139°48'0 0.0
2014-Aug-26 14:33N 35°38' E 139°48'0 0.0
2014-Aug-26 13:33N 35°38' E 139°48'0 0.0
2014-Aug-26 12:33N 35°38' E 139°48'0 0.0
2014-Aug-26 11:33N 35°38' E 139°48'0 0.0
2014-Aug-26 10:33N 35°38' E 139°48'0 0.0
2014-Aug-26 09:33N 35°38' E 139°48'0 0.0
2014-Aug-26 08:33N 35°38' E 139°48'0 0.0
2014-Aug-26 07:33N 35°38' E 139°48'0 0.0
2014-Aug-26 06:33N 35°38' E 139°48'0 0.0
2014-Aug-26 05:33N 35°38' E 139°48'0 0.0
2014-Aug-26 04:33N 35°38' E 139°48'0 0.0
2014-Aug-26 03:33N 35°38' E 139°48'0 0.0
2014-Aug-26 02:33N 35°38' E 139°48'0 0.0
2014-Aug-26 01:33N 35°38' E 139°48'0 0.1
2014-Aug-26 00:33N 35°38' E 139°48'4 3.8
2014-Aug-25 23:33N 35°35' E 139°52'6 5.9
2014-Aug-25 22:33N 35°35' E 139°59'5 5.3
2014-Aug-25 21:33N 35°37' E 140°05'0 0.0
2014-Aug-25 20:33N 35°37' E 140°05'0 0.0
2014-Aug-25 19:33N 35°37' E 140°05'0 0.0
2014-Aug-25 18:33N 35°37' E 140°05'0 0.0
2014-Aug-25 17:33N 35°37' E 140°05'0 0.0
2014-Aug-25 16:33N 35°37' E 140°05'0 0.0
2014-Aug-25 15:33N 35°37' E 140°05'0 0.0
2014-Aug-25 14:33N 35°37' E 140°05'0 0.0
2014-Aug-25 13:33N 35°37' E 140°05'0 0.0
2014-Aug-25 12:33N 35°37' E 140°05'0 0.0
2014-Aug-25 11:33N 35°37' E 140°05'0 0.0
2014-Aug-25 10:33N 35°37' E 140°05'0 0.0
2014-Aug-25 09:33N 35°37' E 140°05'0 0.0
2014-Aug-25 08:33N 35°37' E 140°05'0 0.0
2014-Aug-25 07:33N 35°37' E 140°05'0 0.0
2014-Aug-25 06:33N 35°37' E 140°05'1 1.1
2014-Aug-25 05:33N 35°36' E 140°05'1 1.2
2014-Aug-25 04:33N 35°36' E 140°04'0 0.0
2014-Aug-25 03:33N 35°36' E 140°04'0 0.0
2014-Aug-25 02:33N 35°36' E 140°04'0 0.0
2014-Aug-25 01:33N 35°36' E 140°04'0 0.0
2014-Aug-25 00:33N 35°36' E 140°04'0 0.0
2014-Aug-24 23:33N 35°36' E 140°04'0 0.0
2014-Aug-24 22:33N 35°36' E 140°04'0 0.0
2014-Aug-24 21:33N 35°36' E 140°04'2 1.8
2014-Aug-24 20:33N 35°35' E 140°02'1211.6
2014-Aug-24 19:33N 35°28' E 139°51'1110.8
2014-Aug-24 18:33N 35°18' E 139°45'1110.8
2014-Aug-24 17:33N 35°07' E 139°46'1211.5
2014-Aug-24 16:33N 34°59' E 139°35'  
Track history (hours):
 
Tides and Currents Weather Stations Pressure Air Temp Water Temp Dewpoint Dewpoint Depression Visibility Wind Speed Wind Dir Waves Ship Positions

Teruhou Maru No.22

Last reported at 2014-Aug-29 01:29 UTC. Time now 2014-Sep-01 11:38 UTC.
Position N 34°57' E 139°24'.

Length 76 m; draft 4 m.

Type: Cargo ship. MMSI: 431002552.

Date/timePositionNaut miles runAvg speedWind from/ knotsBaromVisibWave heightAir tempDewpointWater temp
2014-Aug-29 01:29N 34°57' E 139°24'1011.2
2014-Aug-29 00:33N 35°03' E 139°34'1211.6
2014-Aug-28 23:33N 35°10' E 139°45'1211.9
2014-Aug-28 22:33N 35°22' E 139°42'7 7.5
2014-Aug-28 21:33N 35°21' E 139°51'0 0.0
2014-Aug-28 19:32N 35°21' E 139°51'0 0.1
2014-Aug-28 18:32N 35°21' E 139°51'0 0.2
2014-Aug-28 17:06N 35°21' E 139°51'0 0.2
2014-Aug-28 16:15N 35°21' E 139°51'0 0.1
2014-Aug-28 15:28N 35°21' E 139°51'0 0.1
2014-Aug-28 14:24N 35°21' E 139°51'0 0.0
2014-Aug-28 13:33N 35°21' E 139°51'0 0.0
2014-Aug-28 12:33N 35°21' E 139°51'0 0.1
2014-Aug-28 11:30N 35°21' E 139°51'0 0.1
2014-Aug-28 10:33N 35°21' E 139°51'0 0.1
2014-Aug-28 09:29N 35°21' E 139°51'0 0.1
2014-Aug-28 08:31N 35°21' E 139°51'0 0.1
2014-Aug-28 07:22N 35°21' E 139°51'0 0.1
2014-Aug-28 06:17N 35°21' E 139°51'0 0.1
2014-Aug-28 05:24N 35°21' E 139°51'0 0.1
2014-Aug-28 04:33N 35°21' E 139°51'1 1.4
2014-Aug-28 03:33N 35°22' E 139°50'0 0.0
2014-Aug-28 02:33N 35°22' E 139°50'0 0.0
2014-Aug-28 01:33N 35°22' E 139°50'0 0.0
2014-Aug-28 00:33N 35°22' E 139°50'0 0.0
2014-Aug-27 23:33N 35°22' E 139°50'0 0.0
2014-Aug-27 22:33N 35°22' E 139°50'0 0.0
2014-Aug-27 21:33N 35°22' E 139°50'0 0.0
2014-Aug-27 20:33N 35°22' E 139°50'0 0.0
2014-Aug-27 19:33N 35°22' E 139°50'0 0.0
2014-Aug-27 18:33N 35°22' E 139°50'0 0.0
2014-Aug-27 17:33N 35°22' E 139°50'0 0.0
2014-Aug-27 16:33N 35°22' E 139°50'0 0.0
2014-Aug-27 15:33N 35°22' E 139°50'0 0.0
2014-Aug-27 14:34N 35°22' E 139°50'0 0.0
2014-Aug-27 13:33N 35°22' E 139°50'0 0.0
2014-Aug-27 12:33N 35°22' E 139°50'0 0.0
2014-Aug-27 11:33N 35°22' E 139°50'0 0.0
2014-Aug-27 10:33N 35°22' E 139°50'0 0.0
2014-Aug-27 09:33N 35°22' E 139°50'0 0.0
2014-Aug-27 08:33N 35°22' E 139°50'0 0.0
2014-Aug-27 07:32N 35°22' E 139°50'0 0.0
2014-Aug-27 06:33N 35°22' E 139°50'3 2.9
2014-Aug-27 05:33N 35°25' E 139°49'1312.5
2014-Aug-27 04:33N 35°37' E 139°49'1 0.8
2014-Aug-27 03:33N 35°38' E 139°48'0 0.1
2014-Aug-27 02:33N 35°38' E 139°48'0 0.0
2014-Aug-27 01:33N 35°38' E 139°48'0 0.0
2014-Aug-27 00:33N 35°38' E 139°48'0 0.0
2014-Aug-26 23:31N 35°38' E 139°48'0 0.0
2014-Aug-26 22:33N 35°38' E 139°48'0 0.1
2014-Aug-26 21:33N 35°38' E 139°48'0 0.0
2014-Aug-26 20:33N 35°38' E 139°48'0 0.0
2014-Aug-26 19:33N 35°38' E 139°48'0 0.0
2014-Aug-26 18:33N 35°38' E 139°48'0 0.0
2014-Aug-26 17:33N 35°38' E 139°48'0 0.1
2014-Aug-26 16:33N 35°38' E 139°48'0 0.1
2014-Aug-26 15:33N 35°38' E 139°48'0 0.0
2014-Aug-26 14:33N 35°38' E 139°48'0 0.0
2014-Aug-26 13:33N 35°38' E 139°48'0 0.0
2014-Aug-26 12:33N 35°38' E 139°48'0 0.0
2014-Aug-26 11:33N 35°38' E 139°48'0 0.0
2014-Aug-26 10:33N 35°38' E 139°48'0 0.0
2014-Aug-26 09:33N 35°38' E 139°48'0 0.0
2014-Aug-26 08:33N 35°38' E 139°48'0 0.0
2014-Aug-26 07:33N 35°38' E 139°48'0 0.0
2014-Aug-26 06:33N 35°38' E 139°48'0 0.0
2014-Aug-26 05:33N 35°38' E 139°48'0 0.0
2014-Aug-26 04:33N 35°38' E 139°48'0 0.0
2014-Aug-26 03:33N 35°38' E 139°48'0 0.0
2014-Aug-26 02:33N 35°38' E 139°48'0 0.0
2014-Aug-26 01:33N 35°38' E 139°48'0 0.1
2014-Aug-26 00:33N 35°38' E 139°48'4 3.8
2014-Aug-25 23:33N 35°35' E 139°52'6 5.9
2014-Aug-25 22:33N 35°35' E 139°59'5 5.3
2014-Aug-25 21:33N 35°37' E 140°05'0 0.0
2014-Aug-25 20:33N 35°37' E 140°05'0 0.0
2014-Aug-25 19:33N 35°37' E 140°05'0 0.0
2014-Aug-25 18:33N 35°37' E 140°05'0 0.0
2014-Aug-25 17:33N 35°37' E 140°05'0 0.0
2014-Aug-25 16:33N 35°37' E 140°05'0 0.0
2014-Aug-25 15:33N 35°37' E 140°05'0 0.0
2014-Aug-25 14:33N 35°37' E 140°05'0 0.0
2014-Aug-25 13:33N 35°37' E 140°05'0 0.0
2014-Aug-25 12:33N 35°37' E 140°05'0 0.0
2014-Aug-25 11:33N 35°37' E 140°05'0 0.0
2014-Aug-25 10:33N 35°37' E 140°05'0 0.0
2014-Aug-25 09:33N 35°37' E 140°05'0 0.0
2014-Aug-25 08:33N 35°37' E 140°05'0 0.0
2014-Aug-25 07:33N 35°37' E 140°05'0 0.0
2014-Aug-25 06:33N 35°37' E 140°05'1 1.1
2014-Aug-25 05:33N 35°36' E 140°05'1 1.2
2014-Aug-25 04:33N 35°36' E 140°04'0 0.0
2014-Aug-25 03:33N 35°36' E 140°04'0 0.0
2014-Aug-25 02:33N 35°36' E 140°04'0 0.0
2014-Aug-25 01:33N 35°36' E 140°04'0 0.0
2014-Aug-25 00:33N 35°36' E 140°04'0 0.0
2014-Aug-24 23:33N 35°36' E 140°04'0 0.0
2014-Aug-24 22:33N 35°36' E 140°04'0 0.0
2014-Aug-24 21:33N 35°36' E 140°04'2 1.8
2014-Aug-24 20:33N 35°35' E 140°02'1211.6
2014-Aug-24 19:33N 35°28' E 139°51'1110.8
2014-Aug-24 18:33N 35°18' E 139°45'1110.8
2014-Aug-24 17:33N 35°07' E 139°46'1211.5
2014-Aug-24 16:33N 34°59' E 139°35'  

Dump ship's entire track history